Bei Facebook empfehlenBei Twitter postenGoogle plusPinterest

Das Wetter im Erzgebirge am 24.11.2016

Wetter und Klima am 24.11.2016 Holzhau im Erzgebirge (630m ü.NN)
Letzte gemessene Temperatur und Uhrzeit der Messung23:45:00 Uhr3.80 °C
Temperatur (Maximum / Höchstwert) und Uhrzeit der Messung12:45:00 Uhr9.20 °C
Temperatur (Minimum / Tiefstwert) und Uhrzeit der Messung07:15:001.30 °C
Errechneter Absolutwert der Temperaturschwankungen zwischen Tmin und Tmax des Tages7.90 K
Errechnete Tagesmitteltemperatur4.45833 °C
Gesamt - Niederschlag des Tages (in flüssiger Form)0.00 Liter / m²
Luftdruck (Maximum / Höchstwert) und Zeitpunkt der Messung22:45:00 Uhr1017.80 hPa
Luftdruck (Minimum / Tiefstwert) und Zeitpunkt der Messung05:30:00 Uhr1015.50 hPa
Errechneter Absolutwert der Luftdruckschwankungen des Tages2.30 hPa
Höchste gemessene Windgeschwindigkeit und Uhrzeit der Messung23:45:00 Uhr0.00 km/h
Errechnete Windhäufigkeit in Relation zu den Messwerten des Tages0.00000 %
Niedrigste Windkühle (Windchill) und Zeitpunkt der Messung07:15:00 Uhr1.30 °C
Taupunkt (Maximum / Höchstwert) und Uhrzeit der Messung12:45:00 Uhr8.30 °C
Taupunkt (Minimum / Tiefstwert) und Uhrzeit der Messung07:15:000.70 °C
Anzahl der automatisch eingelesenen Messwerte 96

Detaillierte Wetter- und Klima- Messwerte für den 24.11.2016 in Holzhau im Erzgebirge (630m ü.NN)
ZeitTemperaturLuftdruckRel. LuftfeuchteWindWindrichtungWindchillTaupunktNiederschlag l/m²
23:45:003.80 °C1017.30 hPa95.00 %3.10 °C 
23:30:003.80 °C1017.60 hPa95.00 %3.10 °C 
23:15:003.80 °C1017.50 hPa95.00 %3.10 °C 
23:00:003.90 °C1017.60 hPa95.00 %3.20 °C 
22:45:003.90 °C1017.80 hPa95.00 %3.20 °C 
22:30:003.90 °C1017.70 hPa95.00 %3.20 °C 
22:15:003.90 °C1017.60 hPa95.00 %3.20 °C 
22:00:003.90 °C1017.50 hPa95.00 %3.20 °C 
21:45:003.90 °C1017.60 hPa95.00 %3.20 °C 
21:30:003.90 °C1017.60 hPa95.00 %3.20 °C 
21:15:003.90 °C1017.60 hPa95.00 %3.20 °C 
21:00:003.90 °C1017.50 hPa95.00 %3.20 °C 
20:45:003.90 °C1017.60 hPa95.00 %3.20 °C 
20:30:003.90 °C1017.70 hPa95.00 %3.20 °C 
20:15:003.90 °C1017.80 hPa95.00 %3.20 °C 
20:00:004.10 °C1017.70 hPa95.00 %3.40 °C 
19:45:004.10 °C1017.60 hPa95.00 %3.40 °C 
19:30:004.10 °C1017.60 hPa95.00 %3.40 °C 
19:15:004.20 °C1017.40 hPa95.00 %3.50 °C 
19:00:004.30 °C1017.30 hPa94.00 %3.40 °C 
18:45:004.40 °C1017.40 hPa94.00 %3.50 °C 
18:30:004.40 °C1017.30 hPa94.00 %3.50 °C 
18:15:004.60 °C1017.10 hPa94.00 %3.70 °C 
18:00:004.80 °C1017.30 hPa94.00 %3.90 °C 
17:45:004.90 °C1017.10 hPa94.00 %4.00 °C 
17:30:005.10 °C1016.90 hPa94.00 %4.20 °C 
17:15:005.30 °C1016.90 hPa94.00 %4.40 °C 
17:00:005.40 °C1017.00 hPa94.00 %4.50 °C 
16:45:005.50 °C1016.90 hPa94.00 %4.60 °C 
16:30:005.60 °C1016.80 hPa93.00 %4.60 °C 
16:15:005.80 °C1016.80 hPa93.00 %4.80 °C 
16:00:005.80 °C1016.70 hPa93.00 %4.80 °C 
15:45:006.10 °C1016.60 hPa93.00 %5.10 °C 
15:30:006.30 °C1016.70 hPa93.00 %5.30 °C 
15:15:006.50 °C1016.60 hPa93.00 %5.50 °C 
15:00:006.80 °C1016.60 hPa92.00 %5.60 °C 
14:45:006.70 °C1016.80 hPa92.00 %5.50 °C 
14:30:006.70 °C1016.80 hPa92.00 %5.50 °C 
14:15:007.00 °C1016.90 hPa92.00 %5.80 °C 
14:00:007.40 °C1016.90 hPa92.00 %6.20 °C 
13:45:007.40 °C1017.10 hPa92.00 %6.20 °C 
13:30:007.60 °C1017.00 hPa92.00 %6.40 °C 
13:15:008.40 °C1017.20 hPa92.00 %7.20 °C 
13:00:009.10 °C1017.40 hPa93.00 %8.00 °C 
12:45:009.20 °C1017.60 hPa94.00 %8.30 °C 
12:30:008.70 °C1017.40 hPa95.00 %7.90 °C 
12:15:008.60 °C1017.40 hPa95.00 %7.80 °C 
12:00:008.50 °C1017.20 hPa96.00 %7.90 °C 
11:45:008.50 °C1017.20 hPa96.00 %7.90 °C 
11:30:008.40 °C1017.40 hPa97.00 %8.00 °C 
11:15:008.40 °C1017.30 hPa97.00 %8.00 °C 
11:00:007.60 °C1017.20 hPa97.00 %7.20 °C 
10:45:007.10 °C1017.30 hPa97.00 %6.70 °C 
10:30:006.70 °C1017.50 hPa97.00 %6.30 °C 
10:15:006.30 °C1017.60 hPa97.00 %5.90 °C 
10:00:005.60 °C1017.30 hPa97.00 %5.20 °C 
09:45:004.90 °C1017.20 hPa97.00 %4.50 °C 
09:30:004.20 °C1017.40 hPa97.00 %3.80 °C 
09:15:003.80 °C1017.10 hPa97.00 %3.40 °C 
09:00:003.50 °C1017.20 hPa97.00 %3.10 °C 
08:45:002.90 °C1016.90 hPa96.00 %2.30 °C 
08:30:002.50 °C1016.60 hPa96.00 %1.90 °C 
08:15:002.30 °C1016.50 hPa96.00 %1.70 °C 
08:00:002.20 °C1016.60 hPa96.00 %1.60 °C 
07:45:001.90 °C1016.60 hPa96.00 %1.30 °C 
07:30:001.60 °C1016.30 hPa96.00 %1.00 °C 
07:15:001.30 °C1016.50 hPa96.00 %0.70 °C 
07:00:001.30 °C1016.50 hPa96.00 %0.70 °C 
06:45:001.30 °C1016.30 hPa96.00 %0.70 °C 
06:30:001.60 °C1016.20 hPa96.00 %1.00 °C 
06:15:001.80 °C1015.90 hPa96.00 %1.20 °C 
06:00:001.90 °C1015.90 hPa96.00 %1.30 °C 
05:45:002.00 °C1015.70 hPa96.00 %1.40 °C 
05:30:002.00 °C1015.50 hPa96.00 %1.40 °C 
05:15:002.10 °C1015.60 hPa96.00 %1.50 °C 
05:00:002.10 °C1015.80 hPa96.00 %1.50 °C 
04:45:002.10 °C1015.80 hPa96.00 %1.50 °C 
04:30:001.90 °C1015.90 hPa96.00 %1.30 °C 
04:15:002.10 °C1015.90 hPa96.00 %1.50 °C 
04:00:002.30 °C1016.00 hPa96.00 %1.70 °C 
03:45:002.40 °C1016.10 hPa96.00 %1.80 °C 
03:30:002.40 °C1016.10 hPa96.00 %1.80 °C 
03:15:002.60 °C1015.90 hPa96.00 %2.00 °C 
03:00:002.90 °C1015.80 hPa96.00 %2.30 °C 
02:45:003.30 °C1015.90 hPa96.00 %2.70 °C 
02:30:003.30 °C1016.00 hPa96.00 %2.70 °C 
02:15:003.50 °C1016.10 hPa96.00 %2.90 °C 
02:00:003.50 °C1016.10 hPa96.00 %2.90 °C 
01:45:003.40 °C1016.20 hPa96.00 %2.80 °C 
01:30:003.40 °C1016.20 hPa96.00 %2.80 °C 
01:15:003.40 °C1016.20 hPa96.00 %2.80 °C 
01:00:003.40 °C1015.90 hPa96.00 %2.80 °C 
00:45:003.60 °C1015.80 hPa96.00 %3.00 °C 
00:30:003.60 °C1015.90 hPa96.00 %3.00 °C 
00:15:003.60 °C1015.90 hPa96.00 %3.00 °C 
00:00:003.90 °C1015.90 hPa96.00 %3.30 °C 

Permanenter Link zu dieser Seite: Wetter im Erzgebirge am 24.11.2016
Performance-Info: Die Erstellung der Seite / Statistik(en) / Tabelle(n) erforderte 5 Datenbankserver-Abfrage(n) und dauerte 101 Millisekunden. (Dieser Messwert ist von der Gesamt-Auslastung des Servers abhängig.)
Erzgebirge - Wetter | Erzgebirge - Wetter (Mobilgeräte) | Komplette Klimadatenbank